ETAR

Ramstein Air Base Airport

Ramstein, Germany
TAF ETAR 201803Z 2018/2200 06006KT 9999 SCT025 QNH3002INS BECMG 2109/2110 06009KT 9999 FEW025 QNH3016INS BECMG 2116/2117 07009KT 9999 BKN020 620202 QNH3006INS TXM01/2113Z TNM08/2106Z
Issued Valid From Valid To
Jan-20 @ 18:03 UTC
(3 hours ago)
Jan-20 @ 18:00 UTC
(3 hours ago)
Jan-22 @ 00:00 UTC
(-1 days ago)
Jan-20 @ 18:00 to Jan-21 @ 09:00
TAF ETAR 201803Z 2018/2200 06006KT 9999 SCT025 QNH3002INS
Wind Visibility Clouds Readings
60° at 6 knots 10,000+ meters
  • Scattered at 2,500' AGL
Altimeter 30.03" Hg
Pressure 1016.92 hPa
Becoming Jan-21 @ 09:00 to Jan-21 @ 16:00
BECMG 2109/2110 06009KT 9999 FEW025 QNH3016INS
Wind Visibility Clouds Readings
60° at 9 knots 10,000+ meters
  • Few at 2,500' AGL
Altimeter 30.15" Hg
Pressure 1020.92 hPa
Becoming Jan-21 @ 16:00 to Jan-22 @ 00:00
BECMG 2116/2117 07009KT 9999 BKN020 620202 QNH3006INS TXM01/2113Z TNM08/2106Z
Wind Visibility Clouds Readings Icing
70° at 9 knots 10,000+ meters
  • Broken at 2,000' AGL
Altimeter 30.06" Hg
Pressure 1017.92 hPa
Light icing in cloud expected at 2,000' AGL extending to 4,000' AGL
TAF ETAR 201803Z 2018/2200 06006KT 9999 SCT025 QNH3002INS BECMG 2109/2110 06009KT 9999 FEW025 QNH3016INS BECMG 2116/2117 07009KT 9999 BKN020 620202 QNH3006INS TXM01/2113Z TNM08/2106Z
Issued Jan-20 @ 18:03 UTC
(3 hours ago)
Valid From Jan-20 @ 18:00 UTC
(3 hours ago)
Valid To Jan-22 @ 00:00 UTC
(-1 days ago)
Jan-20 @ 18:00 - Jan-21 @ 09:00
Wind Visibility
60° at 6 knots 10,000+ meters
Clouds
  • Scattered at 2,500' AGL
Becoming Jan-21 @ 09:00 - Jan-21 @ 16:00
Wind Visibility
60° at 9 knots 10,000+ meters
Clouds
  • Few at 2,500' AGL
Becoming Jan-21 @ 16:00 - Jan-22 @ 00:00
Wind Visibility
70° at 9 knots 10,000+ meters
Clouds
  • Broken at 2,000' AGL